sensor_id;sensor_type;location;lat;lon;timestamp;P1;durP1;ratioP1;P2;durP2;ratioP2
7025;SDS011;3554;42.132;24.786;2023-06-26T00:01:03;6.17;;;5.73;;
7025;SDS011;3554;42.132;24.786;2023-06-26T00:03:31;7.00;;;6.50;;
7025;SDS011;3554;42.132;24.786;2023-06-26T00:05:58;7.13;;;6.53;;
7025;SDS011;3554;42.132;24.786;2023-06-26T00:08:26;6.97;;;6.33;;
7025;SDS011;3554;42.132;24.786;2023-06-26T00:10:53;6.90;;;6.30;;
7025;SDS011;3554;42.132;24.786;2023-06-26T00:13:19;8.50;;;6.73;;
7025;SDS011;3554;42.132;24.786;2023-06-26T00:15:48;9.20;;;6.70;;
7025;SDS011;3554;42.132;24.786;2023-06-26T00:18:16;7.90;;;6.67;;
7025;SDS011;3554;42.132;24.786;2023-06-26T00:20:43;7.17;;;6.67;;
7025;SDS011;3554;42.132;24.786;2023-06-26T00:23:11;11.70;;;6.60;;
7025;SDS011;3554;42.132;24.786;2023-06-26T00:25:38;10.33;;;6.10;;
7025;SDS011;3554;42.132;24.786;2023-06-26T00:28:05;8.33;;;7.60;;
7025;SDS011;3554;42.132;24.786;2023-06-26T00:30:32;7.23;;;6.67;;
7025;SDS011;3554;42.132;24.786;2023-06-26T00:33:00;9.93;;;6.90;;
7025;SDS011;3554;42.132;24.786;2023-06-26T00:35:27;8.00;;;7.10;;
7025;SDS011;3554;42.132;24.786;2023-06-26T00:37:54;7.93;;;6.67;;
7025;SDS011;3554;42.132;24.786;2023-06-26T00:40:21;7.47;;;6.70;;
7025;SDS011;3554;42.132;24.786;2023-06-26T00:42:48;7.27;;;6.67;;
7025;SDS011;3554;42.132;24.786;2023-06-26T00:45:14;7.47;;;6.87;;
7025;SDS011;3554;42.132;24.786;2023-06-26T00:47:41;7.93;;;7.23;;
7025;SDS011;3554;42.132;24.786;2023-06-26T00:50:10;7.93;;;7.33;;
7025;SDS011;3554;42.132;24.786;2023-06-26T00:52:37;7.30;;;6.60;;
7025;SDS011;3554;42.132;24.786;2023-06-26T00:55:04;7.20;;;6.60;;
7025;SDS011;3554;42.132;24.786;2023-06-26T00:57:32;8.53;;;7.23;;
7025;SDS011;3554;42.132;24.786;2023-06-26T00:59:59;10.27;;;6.77;;
7025;SDS011;3554;42.132;24.786;2023-06-26T01:02:29;7.73;;;7.10;;
7025;SDS011;3554;42.132;24.786;2023-06-26T01:04:58;9.73;;;7.97;;
7025;SDS011;3554;42.132;24.786;2023-06-26T01:07:29;8.33;;;7.43;;
7025;SDS011;3554;42.132;24.786;2023-06-26T01:09:57;11.83;;;7.50;;
7025;SDS011;3554;42.132;24.786;2023-06-26T01:12:24;8.40;;;7.43;;
7025;SDS011;3554;42.132;24.786;2023-06-26T01:14:52;8.43;;;7.73;;
7025;SDS011;3554;42.132;24.786;2023-06-26T01:17:18;8.80;;;8.00;;
7025;SDS011;3554;42.132;24.786;2023-06-26T01:19:46;8.77;;;7.93;;
7025;SDS011;3554;42.132;24.786;2023-06-26T01:22:16;8.40;;;7.63;;
7025;SDS011;3554;42.132;24.786;2023-06-26T01:24:53;8.23;;;7.63;;
7025;SDS011;3554;42.132;24.786;2023-06-26T01:27:30;8.80;;;7.53;;
7025;SDS011;3554;42.132;24.786;2023-06-26T01:29:58;8.77;;;8.03;;
7025;SDS011;3554;42.132;24.786;2023-06-26T01:32:29;8.17;;;7.57;;
7025;SDS011;3554;42.132;24.786;2023-06-26T01:34:57;8.23;;;7.60;;
7025;SDS011;3554;42.132;24.786;2023-06-26T01:37:24;8.93;;;7.97;;
7025;SDS011;3554;42.132;24.786;2023-06-26T01:39:51;10.03;;;7.97;;
7025;SDS011;3554;42.132;24.786;2023-06-26T01:42:18;8.30;;;7.50;;
7025;SDS011;3554;42.132;24.786;2023-06-26T01:44:46;9.43;;;8.53;;
7025;SDS011;3554;42.132;24.786;2023-06-26T01:47:14;9.87;;;8.43;;
7025;SDS011;3554;42.132;24.786;2023-06-26T01:49:47;9.97;;;8.93;;
7025;SDS011;3554;42.132;24.786;2023-06-26T01:52:18;9.63;;;8.67;;
7025;SDS011;3554;42.132;24.786;2023-06-26T01:54:54;9.67;;;8.77;;
7025;SDS011;3554;42.132;24.786;2023-06-26T01:57:25;9.53;;;8.67;;
7025;SDS011;3554;42.132;24.786;2023-06-26T01:59:55;10.60;;;8.77;;
7025;SDS011;3554;42.132;24.786;2023-06-26T02:02:23;10.50;;;9.17;;
7025;SDS011;3554;42.132;24.786;2023-06-26T02:04:51;9.57;;;8.67;;
7025;SDS011;3554;42.132;24.786;2023-06-26T02:07:18;9.63;;;8.70;;
7025;SDS011;3554;42.132;24.786;2023-06-26T02:09:45;9.07;;;8.27;;
7025;SDS011;3554;42.132;24.786;2023-06-26T02:12:12;14.17;;;9.57;;
7025;SDS011;3554;42.132;24.786;2023-06-26T02:14:39;11.60;;;8.33;;
7025;SDS011;3554;42.132;24.786;2023-06-26T02:17:07;10.10;;;9.20;;
7025;SDS011;3554;42.132;24.786;2023-06-26T02:19:34;10.63;;;9.20;;
7025;SDS011;3554;42.132;24.786;2023-06-26T02:22:01;9.63;;;8.73;;
7025;SDS011;3554;42.132;24.786;2023-06-26T02:24:28;10.17;;;8.97;;
7025;SDS011;3554;42.132;24.786;2023-06-26T02:26:55;11.30;;;9.43;;
7025;SDS011;3554;42.132;24.786;2023-06-26T02:29:22;11.20;;;10.00;;
7025;SDS011;3554;42.132;24.786;2023-06-26T02:31:49;10.03;;;9.13;;
7025;SDS011;3554;42.132;24.786;2023-06-26T02:34:17;13.77;;;10.07;;
7025;SDS011;3554;42.132;24.786;2023-06-26T02:36:44;10.30;;;9.27;;
7025;SDS011;3554;42.132;24.786;2023-06-26T02:39:11;11.30;;;10.20;;
7025;SDS011;3554;42.132;24.786;2023-06-26T02:41:39;13.67;;;9.63;;
7025;SDS011;3554;42.132;24.786;2023-06-26T02:44:06;15.30;;;10.57;;
7025;SDS011;3554;42.132;24.786;2023-06-26T02:46:33;11.53;;;10.33;;
7025;SDS011;3554;42.132;24.786;2023-06-26T02:48:59;10.03;;;9.13;;
7025;SDS011;3554;42.132;24.786;2023-06-26T02:51:27;11.33;;;10.20;;
7025;SDS011;3554;42.132;24.786;2023-06-26T02:53:54;12.57;;;9.87;;
7025;SDS011;3554;42.132;24.786;2023-06-26T02:56:21;11.23;;;10.10;;
7025;SDS011;3554;42.132;24.786;2023-06-26T02:58:48;12.67;;;11.37;;
7025;SDS011;3554;42.132;24.786;2023-06-26T03:01:14;11.63;;;9.93;;
7025;SDS011;3554;42.132;24.786;2023-06-26T03:03:41;10.90;;;9.77;;
7025;SDS011;3554;42.132;24.786;2023-06-26T03:06:08;11.03;;;10.03;;
7025;SDS011;3554;42.132;24.786;2023-06-26T03:08:36;11.67;;;10.70;;
7025;SDS011;3554;42.132;24.786;2023-06-26T03:11:04;14.57;;;11.27;;
7025;SDS011;3554;42.132;24.786;2023-06-26T03:13:31;12.33;;;10.80;;
7025;SDS011;3554;42.132;24.786;2023-06-26T03:15:58;14.53;;;11.00;;
7025;SDS011;3554;42.132;24.786;2023-06-26T03:18:25;12.60;;;10.30;;
7025;SDS011;3554;42.132;24.786;2023-06-26T03:20:52;11.33;;;9.53;;
7025;SDS011;3554;42.132;24.786;2023-06-26T03:23:20;14.83;;;10.37;;
7025;SDS011;3554;42.132;24.786;2023-06-26T03:25:49;11.30;;;10.03;;
7025;SDS011;3554;42.132;24.786;2023-06-26T03:28:16;13.40;;;9.97;;
7025;SDS011;3554;42.132;24.786;2023-06-26T03:30:43;13.93;;;9.23;;
7025;SDS011;3554;42.132;24.786;2023-06-26T03:33:09;13.50;;;11.03;;
7025;SDS011;3554;42.132;24.786;2023-06-26T03:35:36;12.60;;;10.07;;
7025;SDS011;3554;42.132;24.786;2023-06-26T03:38:03;17.10;;;11.13;;
7025;SDS011;3554;42.132;24.786;2023-06-26T03:40:30;11.50;;;10.37;;
7025;SDS011;3554;42.132;24.786;2023-06-26T03:42:59;15.60;;;11.17;;
7025;SDS011;3554;42.132;24.786;2023-06-26T03:45:25;13.87;;;10.77;;
7025;SDS011;3554;42.132;24.786;2023-06-26T03:47:52;11.20;;;10.10;;
7025;SDS011;3554;42.132;24.786;2023-06-26T03:50:19;11.87;;;10.70;;
7025;SDS011;3554;42.132;24.786;2023-06-26T03:52:46;11.63;;;10.63;;
7025;SDS011;3554;42.132;24.786;2023-06-26T03:55:13;13.10;;;11.10;;
7025;SDS011;3554;42.132;24.786;2023-06-26T03:57:39;12.13;;;10.60;;
7025;SDS011;3554;42.132;24.786;2023-06-26T04:00:08;11.13;;;10.10;;
7025;SDS011;3554;42.132;24.786;2023-06-26T04:02:38;11.27;;;10.17;;
7025;SDS011;3554;42.132;24.786;2023-06-26T04:05:05;11.27;;;10.03;;
7025;SDS011;3554;42.132;24.786;2023-06-26T04:07:32;19.37;;;10.50;;
7025;SDS011;3554;42.132;24.786;2023-06-26T04:09:59;13.60;;;12.27;;
7025;SDS011;3554;42.132;24.786;2023-06-26T04:12:27;12.17;;;11.13;;
7025;SDS011;3554;42.132;24.786;2023-06-26T04:14:53;13.63;;;11.17;;
7025;SDS011;3554;42.132;24.786;2023-06-26T04:17:22;11.90;;;10.13;;
7025;SDS011;3554;42.132;24.786;2023-06-26T04:19:48;11.07;;;10.17;;
7025;SDS011;3554;42.132;24.786;2023-06-26T04:22:15;17.13;;;11.33;;
7025;SDS011;3554;42.132;24.786;2023-06-26T04:24:42;12.73;;;10.40;;
7025;SDS011;3554;42.132;24.786;2023-06-26T04:27:11;12.07;;;10.27;;
7025;SDS011;3554;42.132;24.786;2023-06-26T04:29:39;12.03;;;10.83;;
7025;SDS011;3554;42.132;24.786;2023-06-26T04:32:05;10.90;;;9.90;;
7025;SDS011;3554;42.132;24.786;2023-06-26T04:34:34;11.90;;;10.70;;
7025;SDS011;3554;42.132;24.786;2023-06-26T04:37:01;13.13;;;9.80;;
7025;SDS011;3554;42.132;24.786;2023-06-26T04:39:29;11.27;;;10.23;;
7025;SDS011;3554;42.132;24.786;2023-06-26T04:41:56;10.53;;;9.63;;
7025;SDS011;3554;42.132;24.786;2023-06-26T04:44:23;10.87;;;10.00;;
7025;SDS011;3554;42.132;24.786;2023-06-26T04:46:50;10.37;;;9.63;;
7025;SDS011;3554;42.132;24.786;2023-06-26T04:49:18;12.40;;;11.20;;
7025;SDS011;3554;42.132;24.786;2023-06-26T04:51:46;12.20;;;10.97;;
7025;SDS011;3554;42.132;24.786;2023-06-26T04:54:13;11.47;;;10.30;;
7025;SDS011;3554;42.132;24.786;2023-06-26T04:56:40;12.57;;;11.33;;
7025;SDS011;3554;42.132;24.786;2023-06-26T04:59:07;12.03;;;10.87;;
7025;SDS011;3554;42.132;24.786;2023-06-26T05:01:38;12.37;;;11.03;;
7025;SDS011;3554;42.132;24.786;2023-06-26T05:04:05;12.53;;;10.77;;
7025;SDS011;3554;42.132;24.786;2023-06-26T05:06:31;11.73;;;10.73;;
7025;SDS011;3554;42.132;24.786;2023-06-26T05:09:00;10.83;;;9.87;;
7025;SDS011;3554;42.132;24.786;2023-06-26T05:11:26;11.50;;;10.27;;
7025;SDS011;3554;42.132;24.786;2023-06-26T05:13:53;11.63;;;9.93;;
7025;SDS011;3554;42.132;24.786;2023-06-26T05:16:20;12.30;;;9.80;;
7025;SDS011;3554;42.132;24.786;2023-06-26T05:18:47;11.80;;;10.37;;
7025;SDS011;3554;42.132;24.786;2023-06-26T05:21:14;11.33;;;10.30;;
7025;SDS011;3554;42.132;24.786;2023-06-26T05:23:42;11.63;;;10.43;;
7025;SDS011;3554;42.132;24.786;2023-06-26T05:26:13;10.43;;;9.73;;
7025;SDS011;3554;42.132;24.786;2023-06-26T05:28:40;11.63;;;10.40;;
7025;SDS011;3554;42.132;24.786;2023-06-26T05:31:09;11.83;;;10.70;;
7025;SDS011;3554;42.132;24.786;2023-06-26T05:33:36;9.73;;;8.77;;
7025;SDS011;3554;42.132;24.786;2023-06-26T05:36:05;10.00;;;9.27;;
7025;SDS011;3554;42.132;24.786;2023-06-26T05:38:35;10.10;;;9.30;;
7025;SDS011;3554;42.132;24.786;2023-06-26T05:41:02;9.50;;;8.73;;
7025;SDS011;3554;42.132;24.786;2023-06-26T05:43:31;10.37;;;9.30;;
7025;SDS011;3554;42.132;24.786;2023-06-26T05:45:58;8.87;;;8.17;;
7025;SDS011;3554;42.132;24.786;2023-06-26T05:48:24;9.17;;;8.47;;
7025;SDS011;3554;42.132;24.786;2023-06-26T05:50:51;10.97;;;9.87;;
7025;SDS011;3554;42.132;24.786;2023-06-26T05:53:19;9.77;;;8.93;;
7025;SDS011;3554;42.132;24.786;2023-06-26T05:55:46;9.97;;;9.07;;
7025;SDS011;3554;42.132;24.786;2023-06-26T05:58:13;9.90;;;9.07;;
7025;SDS011;3554;42.132;24.786;2023-06-26T06:00:43;9.27;;;8.37;;
7025;SDS011;3554;42.132;24.786;2023-06-26T06:03:10;8.80;;;8.10;;
7025;SDS011;3554;42.132;24.786;2023-06-26T06:05:37;9.00;;;8.20;;
7025;SDS011;3554;42.132;24.786;2023-06-26T06:08:04;8.70;;;8.10;;
7025;SDS011;3554;42.132;24.786;2023-06-26T06:10:31;9.07;;;8.27;;
7025;SDS011;3554;42.132;24.786;2023-06-26T06:12:57;9.30;;;8.27;;
7025;SDS011;3554;42.132;24.786;2023-06-26T06:15:24;8.77;;;7.90;;
7025;SDS011;3554;42.132;24.786;2023-06-26T06:17:52;9.23;;;8.47;;
7025;SDS011;3554;42.132;24.786;2023-06-26T06:20:19;9.90;;;9.00;;
7025;SDS011;3554;42.132;24.786;2023-06-26T06:22:46;9.33;;;8.73;;
7025;SDS011;3554;42.132;24.786;2023-06-26T06:25:14;10.17;;;9.00;;
7025;SDS011;3554;42.132;24.786;2023-06-26T06:27:41;9.10;;;8.20;;
7025;SDS011;3554;42.132;24.786;2023-06-26T06:30:09;9.37;;;8.77;;
7025;SDS011;3554;42.132;24.786;2023-06-26T06:32:36;8.87;;;8.27;;
7025;SDS011;3554;42.132;24.786;2023-06-26T06:35:05;9.20;;;8.30;;
7025;SDS011;3554;42.132;24.786;2023-06-26T06:37:35;9.30;;;8.20;;
7025;SDS011;3554;42.132;24.786;2023-06-26T06:40:02;8.73;;;8.03;;
7025;SDS011;3554;42.132;24.786;2023-06-26T06:42:31;8.53;;;7.80;;
7025;SDS011;3554;42.132;24.786;2023-06-26T06:44:57;9.37;;;8.23;;
7025;SDS011;3554;42.132;24.786;2023-06-26T06:47:24;7.67;;;7.17;;
7025;SDS011;3554;42.132;24.786;2023-06-26T06:49:51;9.23;;;7.70;;
7025;SDS011;3554;42.132;24.786;2023-06-26T06:52:20;9.10;;;8.30;;
7025;SDS011;3554;42.132;24.786;2023-06-26T06:54:52;9.40;;;8.40;;
7025;SDS011;3554;42.132;24.786;2023-06-26T06:57:20;8.47;;;7.80;;
7025;SDS011;3554;42.132;24.786;2023-06-26T06:59:47;8.20;;;7.50;;
7025;SDS011;3554;42.132;24.786;2023-06-26T07:02:14;8.07;;;7.53;;
7025;SDS011;3554;42.132;24.786;2023-06-26T07:04:42;7.73;;;7.17;;
7025;SDS011;3554;42.132;24.786;2023-06-26T07:07:09;8.83;;;7.90;;
7025;SDS011;3554;42.132;24.786;2023-06-26T07:09:37;7.17;;;6.60;;
7025;SDS011;3554;42.132;24.786;2023-06-26T07:12:04;7.03;;;6.53;;
7025;SDS011;3554;42.132;24.786;2023-06-26T07:14:31;9.40;;;6.60;;
7025;SDS011;3554;42.132;24.786;2023-06-26T07:16:58;7.40;;;6.90;;
7025;SDS011;3554;42.132;24.786;2023-06-26T07:19:25;8.07;;;6.63;;
7025;SDS011;3554;42.132;24.786;2023-06-26T07:21:52;6.83;;;6.33;;
7025;SDS011;3554;42.132;24.786;2023-06-26T07:24:19;6.77;;;6.10;;
7025;SDS011;3554;42.132;24.786;2023-06-26T07:26:47;6.90;;;6.40;;
7025;SDS011;3554;42.132;24.786;2023-06-26T07:29:14;7.37;;;6.60;;
7025;SDS011;3554;42.132;24.786;2023-06-26T07:31:40;7.60;;;6.93;;
7025;SDS011;3554;42.132;24.786;2023-06-26T07:34:07;6.67;;;6.17;;
7025;SDS011;3554;42.132;24.786;2023-06-26T07:36:34;6.73;;;5.80;;
7025;SDS011;3554;42.132;24.786;2023-06-26T07:39:01;6.67;;;6.20;;
7025;SDS011;3554;42.132;24.786;2023-06-26T07:41:27;5.70;;;5.33;;
7025;SDS011;3554;42.132;24.786;2023-06-26T07:43:58;6.17;;;5.67;;
7025;SDS011;3554;42.132;24.786;2023-06-26T07:46:25;6.47;;;5.70;;
7025;SDS011;3554;42.132;24.786;2023-06-26T07:48:51;5.80;;;5.30;;
7025;SDS011;3554;42.132;24.786;2023-06-26T07:51:19;6.80;;;6.10;;
7025;SDS011;3554;42.132;24.786;2023-06-26T07:53:46;5.47;;;5.13;;
7025;SDS011;3554;42.132;24.786;2023-06-26T07:56:13;5.93;;;5.53;;
7025;SDS011;3554;42.132;24.786;2023-06-26T07:58:40;6.93;;;6.40;;
7025;SDS011;3554;42.132;24.786;2023-06-26T08:01:08;5.57;;;5.07;;
7025;SDS011;3554;42.132;24.786;2023-06-26T08:03:35;6.17;;;5.70;;
7025;SDS011;3554;42.132;24.786;2023-06-26T08:06:01;6.43;;;5.97;;
7025;SDS011;3554;42.132;24.786;2023-06-26T08:08:29;6.40;;;5.90;;
7025;SDS011;3554;42.132;24.786;2023-06-26T08:10:56;6.93;;;6.33;;
7025;SDS011;3554;42.132;24.786;2023-06-26T08:13:23;6.47;;;5.87;;
7025;SDS011;3554;42.132;24.786;2023-06-26T08:15:50;7.37;;;6.87;;
7025;SDS011;3554;42.132;24.786;2023-06-26T08:18:18;4.97;;;4.60;;
7025;SDS011;3554;42.132;24.786;2023-06-26T08:20:45;9.03;;;6.57;;
7025;SDS011;3554;42.132;24.786;2023-06-26T08:23:12;6.77;;;6.10;;
7025;SDS011;3554;42.132;24.786;2023-06-26T08:25:39;6.73;;;6.27;;
7025;SDS011;3554;42.132;24.786;2023-06-26T08:28:06;6.33;;;5.77;;
7025;SDS011;3554;42.132;24.786;2023-06-26T08:30:32;7.47;;;6.07;;
7025;SDS011;3554;42.132;24.786;2023-06-26T08:32:59;7.53;;;6.83;;
7025;SDS011;3554;42.132;24.786;2023-06-26T08:35:27;8.27;;;7.43;;
7025;SDS011;3554;42.132;24.786;2023-06-26T08:37:54;8.50;;;7.90;;
7025;SDS011;3554;42.132;24.786;2023-06-26T08:40:21;9.40;;;8.57;;
7025;SDS011;3554;42.132;24.786;2023-06-26T08:42:48;6.83;;;6.43;;
7025;SDS011;3554;42.132;24.786;2023-06-26T08:45:18;7.90;;;7.40;;
7025;SDS011;3554;42.132;24.786;2023-06-26T08:47:45;7.83;;;7.23;;
7025;SDS011;3554;42.132;24.786;2023-06-26T08:50:18;7.73;;;7.23;;
7025;SDS011;3554;42.132;24.786;2023-06-26T08:52:53;7.20;;;6.60;;
7025;SDS011;3554;42.132;24.786;2023-06-26T08:55:23;6.70;;;6.30;;
7025;SDS011;3554;42.132;24.786;2023-06-26T08:57:52;8.67;;;8.10;;
7025;SDS011;3554;42.132;24.786;2023-06-26T09:00:20;9.20;;;8.50;;
7025;SDS011;3554;42.132;24.786;2023-06-26T09:02:47;9.47;;;8.63;;
7025;SDS011;3554;42.132;24.786;2023-06-26T09:05:13;9.73;;;9.07;;
7025;SDS011;3554;42.132;24.786;2023-06-26T09:07:40;12.37;;;8.73;;
7025;SDS011;3554;42.132;24.786;2023-06-26T09:10:09;6.27;;;5.87;;
7025;SDS011;3554;42.132;24.786;2023-06-26T09:12:36;6.60;;;6.10;;
7025;SDS011;3554;42.132;24.786;2023-06-26T09:15:03;6.70;;;6.30;;
7025;SDS011;3554;42.132;24.786;2023-06-26T09:17:33;6.90;;;5.97;;
7025;SDS011;3554;42.132;24.786;2023-06-26T09:20:05;5.90;;;5.60;;
7025;SDS011;3554;42.132;24.786;2023-06-26T09:22:36;7.57;;;5.93;;
7025;SDS011;3554;42.132;24.786;2023-06-26T09:25:04;9.47;;;5.67;;
7025;SDS011;3554;42.132;24.786;2023-06-26T09:27:34;7.03;;;6.53;;
7025;SDS011;3554;42.132;24.786;2023-06-26T09:30:01;6.77;;;5.63;;
7025;SDS011;3554;42.132;24.786;2023-06-26T09:32:29;7.57;;;6.17;;
7025;SDS011;3554;42.132;24.786;2023-06-26T09:34:55;6.20;;;5.80;;
7025;SDS011;3554;42.132;24.786;2023-06-26T09:37:22;6.90;;;6.30;;
7025;SDS011;3554;42.132;24.786;2023-06-26T09:39:50;6.07;;;5.67;;
7025;SDS011;3554;42.132;24.786;2023-06-26T09:42:17;6.23;;;5.93;;
7025;SDS011;3554;42.132;24.786;2023-06-26T09:44:46;6.43;;;6.03;;
7025;SDS011;3554;42.132;24.786;2023-06-26T09:47:16;9.70;;;8.20;;
7025;SDS011;3554;42.132;24.786;2023-06-26T09:49:44;14.33;;;8.30;;
7025;SDS011;3554;42.132;24.786;2023-06-26T09:52:13;9.67;;;8.67;;
7025;SDS011;3554;42.132;24.786;2023-06-26T09:54:41;7.50;;;6.97;;
7025;SDS011;3554;42.132;24.786;2023-06-26T09:57:10;10.77;;;6.47;;
7025;SDS011;3554;42.132;24.786;2023-06-26T09:59:38;6.57;;;4.80;;
7025;SDS011;3554;42.132;24.786;2023-06-26T10:02:07;6.37;;;5.83;;
7025;SDS011;3554;42.132;24.786;2023-06-26T10:04:34;6.10;;;5.70;;
7025;SDS011;3554;42.132;24.786;2023-06-26T10:07:02;5.47;;;5.07;;
7025;SDS011;3554;42.132;24.786;2023-06-26T10:09:31;6.20;;;5.60;;
7025;SDS011;3554;42.132;24.786;2023-06-26T10:12:02;5.87;;;5.47;;
7025;SDS011;3554;42.132;24.786;2023-06-26T10:14:34;5.83;;;4.23;;
7025;SDS011;3554;42.132;24.786;2023-06-26T10:17:02;5.33;;;4.43;;
7025;SDS011;3554;42.132;24.786;2023-06-26T10:19:33;5.97;;;5.57;;
7025;SDS011;3554;42.132;24.786;2023-06-26T10:22:04;7.47;;;6.73;;
7025;SDS011;3554;42.132;24.786;2023-06-26T10:24:33;7.23;;;6.30;;
7025;SDS011;3554;42.132;24.786;2023-06-26T10:27:02;6.33;;;6.03;;
7025;SDS011;3554;42.132;24.786;2023-06-26T10:29:34;6.37;;;5.87;;
7025;SDS011;3554;42.132;24.786;2023-06-26T10:32:02;7.00;;;6.17;;
7025;SDS011;3554;42.132;24.786;2023-06-26T10:34:31;9.77;;;5.70;;
7025;SDS011;3554;42.132;24.786;2023-06-26T10:37:00;6.40;;;5.97;;
7025;SDS011;3554;42.132;24.786;2023-06-26T10:39:28;6.97;;;6.33;;
7025;SDS011;3554;42.132;24.786;2023-06-26T10:42:12;7.03;;;6.37;;
7025;SDS011;3554;42.132;24.786;2023-06-26T10:44:40;6.73;;;6.33;;
7025;SDS011;3554;42.132;24.786;2023-06-26T10:47:08;9.43;;;6.70;;
7025;SDS011;3554;42.132;24.786;2023-06-26T10:49:38;8.60;;;6.40;;
7025;SDS011;3554;42.132;24.786;2023-06-26T10:52:05;7.33;;;6.63;;
7025;SDS011;3554;42.132;24.786;2023-06-26T10:54:32;5.87;;;5.50;;
7025;SDS011;3554;42.132;24.786;2023-06-26T10:56:59;6.30;;;4.80;;
7025;SDS011;3554;42.132;24.786;2023-06-26T10:59:28;5.70;;;5.20;;
7025;SDS011;3554;42.132;24.786;2023-06-26T11:01:58;4.90;;;4.60;;
7025;SDS011;3554;42.132;24.786;2023-06-26T11:04:40;6.87;;;5.20;;
7025;SDS011;3554;42.132;24.786;2023-06-26T11:07:16;6.77;;;5.17;;
7025;SDS011;3554;42.132;24.786;2023-06-26T11:09:57;5.83;;;5.33;;
7025;SDS011;3554;42.132;24.786;2023-06-26T11:12:35;5.57;;;5.17;;
7025;SDS011;3554;42.132;24.786;2023-06-26T11:15:03;5.33;;;4.83;;
7025;SDS011;3554;42.132;24.786;2023-06-26T11:17:30;6.80;;;6.20;;
7025;SDS011;3554;42.132;24.786;2023-06-26T11:19:59;5.97;;;5.57;;
7025;SDS011;3554;42.132;24.786;2023-06-26T11:22:26;6.50;;;5.90;;
7025;SDS011;3554;42.132;24.786;2023-06-26T11:24:53;7.57;;;6.17;;
7025;SDS011;3554;42.132;24.786;2023-06-26T11:27:20;7.00;;;6.40;;
7025;SDS011;3554;42.132;24.786;2023-06-26T11:29:49;7.47;;;6.97;;
7025;SDS011;3554;42.132;24.786;2023-06-26T11:32:16;6.43;;;5.93;;
7025;SDS011;3554;42.132;24.786;2023-06-26T11:34:43;7.73;;;7.03;;
7025;SDS011;3554;42.132;24.786;2023-06-26T11:37:11;7.40;;;6.90;;
7025;SDS011;3554;42.132;24.786;2023-06-26T11:39:38;7.23;;;6.63;;
7025;SDS011;3554;42.132;24.786;2023-06-26T11:42:04;7.07;;;6.40;;
7025;SDS011;3554;42.132;24.786;2023-06-26T11:44:31;8.43;;;6.90;;
7025;SDS011;3554;42.132;24.786;2023-06-26T11:46:58;6.50;;;6.10;;
7025;SDS011;3554;42.132;24.786;2023-06-26T11:49:25;7.20;;;6.37;;
7025;SDS011;3554;42.132;24.786;2023-06-26T11:51:52;7.83;;;7.23;;
7025;SDS011;3554;42.132;24.786;2023-06-26T11:54:25;7.07;;;6.40;;
7025;SDS011;3554;42.132;24.786;2023-06-26T11:56:53;7.40;;;6.77;;
7025;SDS011;3554;42.132;24.786;2023-06-26T11:59:22;6.80;;;6.30;;
7025;SDS011;3554;42.132;24.786;2023-06-26T12:01:50;6.60;;;5.93;;
7025;SDS011;3554;42.132;24.786;2023-06-26T12:04:18;6.97;;;6.20;;
7025;SDS011;3554;42.132;24.786;2023-06-26T12:06:46;6.60;;;6.10;;
7025;SDS011;3554;42.132;24.786;2023-06-26T12:09:15;7.20;;;6.53;;
7025;SDS011;3554;42.132;24.786;2023-06-26T12:11:46;6.77;;;6.10;;
7025;SDS011;3554;42.132;24.786;2023-06-26T12:14:14;6.77;;;6.27;;
7025;SDS011;3554;42.132;24.786;2023-06-26T12:16:43;6.90;;;5.97;;
7025;SDS011;3554;42.132;24.786;2023-06-26T12:19:10;6.07;;;5.67;;
7025;SDS011;3554;42.132;24.786;2023-06-26T12:21:45;9.07;;;7.13;;
7025;SDS011;3554;42.132;24.786;2023-06-26T12:24:14;6.80;;;6.30;;
7025;SDS011;3554;42.132;24.786;2023-06-26T12:26:43;5.30;;;4.93;;
7025;SDS011;3554;42.132;24.786;2023-06-26T12:29:12;5.33;;;5.03;;
7025;SDS011;3554;42.132;24.786;2023-06-26T12:31:43;5.17;;;4.87;;
7025;SDS011;3554;42.132;24.786;2023-06-26T12:34:11;5.10;;;4.80;;
7025;SDS011;3554;42.132;24.786;2023-06-26T12:36:42;5.37;;;5.07;;
7025;SDS011;3554;42.132;24.786;2023-06-26T12:39:10;4.60;;;4.40;;
7025;SDS011;3554;42.132;24.786;2023-06-26T12:41:49;4.30;;;4.10;;
7025;SDS011;3554;42.132;24.786;2023-06-26T12:44:19;4.57;;;4.37;;
7025;SDS011;3554;42.132;24.786;2023-06-26T12:46:47;5.10;;;4.73;;
7025;SDS011;3554;42.132;24.786;2023-06-26T12:49:15;5.13;;;4.20;;
7025;SDS011;3554;42.132;24.786;2023-06-26T12:51:43;6.80;;;5.67;;
7025;SDS011;3554;42.132;24.786;2023-06-26T12:54:09;6.33;;;5.73;;
7025;SDS011;3554;42.132;24.786;2023-06-26T12:56:36;5.70;;;5.33;;
7025;SDS011;3554;42.132;24.786;2023-06-26T12:59:04;6.10;;;5.60;;
7025;SDS011;3554;42.132;24.786;2023-06-26T13:01:31;5.53;;;5.07;;
7025;SDS011;3554;42.132;24.786;2023-06-26T13:03:59;4.17;;;3.97;;
7025;SDS011;3554;42.132;24.786;2023-06-26T13:06:26;6.27;;;5.67;;
7025;SDS011;3554;42.132;24.786;2023-06-26T13:08:53;5.73;;;5.30;;
7025;SDS011;3554;42.132;24.786;2023-06-26T13:11:19;8.50;;;5.57;;
7025;SDS011;3554;42.132;24.786;2023-06-26T13:13:47;6.70;;;5.87;;
7025;SDS011;3554;42.132;24.786;2023-06-26T13:16:16;7.20;;;6.60;;
7025;SDS011;3554;42.132;24.786;2023-06-26T13:18:43;6.70;;;6.23;;
7025;SDS011;3554;42.132;24.786;2023-06-26T13:21:10;5.90;;;5.40;;
7025;SDS011;3554;42.132;24.786;2023-06-26T13:23:37;8.43;;;7.70;;
7025;SDS011;3554;42.132;24.786;2023-06-26T13:26:04;6.17;;;5.67;;
7025;SDS011;3554;42.132;24.786;2023-06-26T13:28:31;6.63;;;6.17;;
7025;SDS011;3554;42.132;24.786;2023-06-26T13:30:58;5.97;;;5.57;;
7025;SDS011;3554;42.132;24.786;2023-06-26T13:33:27;5.37;;;4.97;;
7025;SDS011;3554;42.132;24.786;2023-06-26T13:35:54;4.17;;;3.93;;
7025;SDS011;3554;42.132;24.786;2023-06-26T13:38:21;4.53;;;4.13;;
7025;SDS011;3554;42.132;24.786;2023-06-26T13:40:50;3.90;;;3.60;;
7025;SDS011;3554;42.132;24.786;2023-06-26T13:43:17;5.53;;;4.47;;
7025;SDS011;3554;42.132;24.786;2023-06-26T13:45:44;3.80;;;3.50;;
7025;SDS011;3554;42.132;24.786;2023-06-26T13:48:11;3.70;;;3.40;;
7025;SDS011;3554;42.132;24.786;2023-06-26T13:50:39;4.30;;;4.00;;
7025;SDS011;3554;42.132;24.786;2023-06-26T13:53:07;4.57;;;4.33;;
7025;SDS011;3554;42.132;24.786;2023-06-26T13:55:34;3.87;;;3.67;;
7025;SDS011;3554;42.132;24.786;2023-06-26T13:58:03;3.47;;;3.17;;
7025;SDS011;3554;42.132;24.786;2023-06-26T14:00:31;3.63;;;3.40;;
7025;SDS011;3554;42.132;24.786;2023-06-26T14:02:58;3.93;;;3.73;;
7025;SDS011;3554;42.132;24.786;2023-06-26T14:05:25;4.23;;;3.80;;
7025;SDS011;3554;42.132;24.786;2023-06-26T14:07:54;3.50;;;3.30;;
7025;SDS011;3554;42.132;24.786;2023-06-26T14:10:21;3.57;;;3.27;;
7025;SDS011;3554;42.132;24.786;2023-06-26T14:12:48;3.20;;;3.03;;
7025;SDS011;3554;42.132;24.786;2023-06-26T14:15:15;3.93;;;3.33;;
7025;SDS011;3554;42.132;24.786;2023-06-26T14:17:42;3.77;;;3.47;;
7025;SDS011;3554;42.132;24.786;2023-06-26T14:20:09;3.97;;;3.70;;
7025;SDS011;3554;42.132;24.786;2023-06-26T14:22:38;4.00;;;3.80;;
7025;SDS011;3554;42.132;24.786;2023-06-26T14:25:06;4.90;;;3.97;;
7025;SDS011;3554;42.132;24.786;2023-06-26T14:27:33;3.90;;;3.60;;
7025;SDS011;3554;42.132;24.786;2023-06-26T14:30:01;3.43;;;3.13;;
7025;SDS011;3554;42.132;24.786;2023-06-26T14:32:27;3.83;;;3.50;;
7025;SDS011;3554;42.132;24.786;2023-06-26T14:34:55;4.73;;;4.33;;
7025;SDS011;3554;42.132;24.786;2023-06-26T14:37:21;3.87;;;3.67;;
7025;SDS011;3554;42.132;24.786;2023-06-26T14:39:49;3.97;;;3.70;;
7025;SDS011;3554;42.132;24.786;2023-06-26T14:42:17;4.03;;;3.73;;
7025;SDS011;3554;42.132;24.786;2023-06-26T14:44:44;3.53;;;3.33;;
7025;SDS011;3554;42.132;24.786;2023-06-26T14:47:12;3.87;;;3.57;;
7025;SDS011;3554;42.132;24.786;2023-06-26T14:49:39;4.20;;;3.80;;
7025;SDS011;3554;42.132;24.786;2023-06-26T14:52:06;5.33;;;4.13;;
7025;SDS011;3554;42.132;24.786;2023-06-26T14:54:33;4.77;;;4.37;;
7025;SDS011;3554;42.132;24.786;2023-06-26T14:57:01;4.40;;;4.17;;
7025;SDS011;3554;42.132;24.786;2023-06-26T14:59:29;5.10;;;4.70;;